Roanoke — WDD9656 — position and weather

sailwx.info

Track history (hours):
 
Tides and Currents Weather Stations Pressure Air Temp Water Temp Dewpoint Dewpoint Depression Visibility Wind Speed Wind Dir Waves Ship Positions

Roanoke

Owner: Vane Line Bunkering, Baltimore, MD. More information available from US FCC via Universal Licensing System and Coast Guard Vessel Documentation Center.

Last reported at 2015-Mar-28 15:32 UTC. Time now 2015-Mar-28 16:02 UTC.
Position N 39°15' W 076°33'.

Length 32 m; draft 13 m.

Type: Towing. MMSI: 367314510.

Date/timePositionNaut miles runAvg speedWind from/ knotsBaromVisibWave heightAir tempDewpointWater temp
2015-Mar-28 15:32N 39°15' W 076°33'0 0.0
2015-Mar-28 14:33N 39°15' W 076°33'0 0.0
2015-Mar-28 13:34N 39°15' W 076°33'0 0.0
2015-Mar-28 12:32N 39°15' W 076°33'0 0.0
2015-Mar-28 11:29N 39°15' W 076°33'0 0.0
2015-Mar-28 10:33N 39°15' W 076°33'0 0.0
2015-Mar-28 09:31N 39°15' W 076°33'0 0.0
2015-Mar-28 08:31N 39°15' W 076°33'0 0.0
2015-Mar-28 07:32N 39°15' W 076°33'0 0.0
2015-Mar-28 06:32N 39°15' W 076°33'0 0.0
2015-Mar-28 05:33N 39°15' W 076°33'0 0.0
2015-Mar-28 04:28N 39°15' W 076°33'0 0.0
2015-Mar-28 03:28N 39°15' W 076°33'0 0.0
2015-Mar-28 02:29N 39°15' W 076°33'0 0.0
2015-Mar-28 01:30N 39°15' W 076°33'0 0.0
2015-Mar-28 00:33N 39°15' W 076°33'0 0.0
2015-Mar-27 23:31N 39°15' W 076°33'0 0.0
2015-Mar-27 22:32N 39°15' W 076°33'0 0.4
2015-Mar-27 21:33N 39°15' W 076°33'2 1.6
2015-Mar-27 20:33N 39°14' W 076°34'0 0.0
2015-Mar-27 19:19N 39°14' W 076°34'1 1.4
2015-Mar-27 18:33N 39°15' W 076°34'0 0.1
2015-Mar-27 17:33N 39°15' W 076°34'0 0.2
2015-Mar-27 16:31N 39°15' W 076°34'0 0.0
2015-Mar-27 15:32N 39°15' W 076°34'1 1.0
2015-Mar-27 14:29N 39°15' W 076°33'0 0.0
2015-Mar-27 13:33N 39°15' W 076°33'0 0.0
2015-Mar-27 12:33N 39°15' W 076°33'0 0.0
2015-Mar-27 11:28N 39°15' W 076°33'0 0.0
2015-Mar-27 10:32N 39°15' W 076°33'0 0.0
2015-Mar-27 09:33N 39°15' W 076°33'0 0.0
2015-Mar-27 08:33N 39°15' W 076°33'0 0.0
2015-Mar-27 07:33N 39°15' W 076°33'0 0.0
2015-Mar-27 06:31N 39°15' W 076°33'0 0.0
2015-Mar-27 05:32N 39°15' W 076°33'0 0.0
2015-Mar-27 04:29N 39°15' W 076°33'0 0.0
2015-Mar-27 03:30N 39°15' W 076°33'5 4.6
2015-Mar-27 02:31N 39°12' W 076°30'72 9.0
2015-Mar-26 18:33N 38°01' W 076°18'54 6.7
2015-Mar-26 10:31N 38°37' W 077°10'8 8.5
2015-Mar-26 09:32N 38°43' W 077°02'9 9.4
2015-Mar-26 08:33N 38°52' W 077°01'0 0.3
2015-Mar-26 07:33N 38°52' W 077°00'0 0.0
2015-Mar-26 06:33N 38°52' W 077°00'0 0.0
2015-Mar-26 05:31N 38°52' W 077°00'0 0.0
2015-Mar-26 04:33N 38°52' W 077°00'0 0.0
2015-Mar-26 03:32N 38°52' W 077°00'0 0.0
2015-Mar-26 02:33N 38°52' W 077°00'0 0.0
2015-Mar-26 01:31N 38°52' W 077°00'0 0.0
2015-Mar-26 00:31N 38°52' W 077°00'0 0.0
2015-Mar-25 23:32N 38°52' W 077°00'0 0.0
2015-Mar-25 22:33N 38°52' W 077°00'0 0.0
2015-Mar-25 21:33N 38°52' W 077°00'0 0.0
2015-Mar-25 20:31N 38°52' W 077°00'0 0.0
2015-Mar-25 19:32N 38°52' W 077°00'0 0.0
2015-Mar-25 18:32N 38°52' W 077°00'0 0.0
2015-Mar-25 17:33N 38°52' W 077°00'0 0.0
2015-Mar-25 16:31N 38°52' W 077°00'0 0.0
2015-Mar-25 15:32N 38°52' W 077°00'0 0.0
2015-Mar-25 14:32N 38°52' W 077°00'0 0.0
2015-Mar-25 13:33N 38°52' W 077°00'0 0.0
2015-Mar-25 12:33N 38°52' W 077°00'0 0.0
2015-Mar-25 11:31N 38°52' W 077°00'0 0.0
2015-Mar-25 10:32N 38°52' W 077°00'0 0.0
2015-Mar-25 09:32N 38°52' W 077°00'0 0.0
2015-Mar-25 08:33N 38°52' W 077°00'0 0.0
2015-Mar-25 07:31N 38°52' W 077°00'0 0.0
2015-Mar-25 06:32N 38°52' W 077°00'0 0.0
2015-Mar-25 05:32N 38°52' W 077°00'0 0.0
2015-Mar-25 04:33N 38°52' W 077°00'0 0.0
2015-Mar-25 03:33N 38°52' W 077°00'0 0.0
2015-Mar-25 02:31N 38°52' W 077°00'0 0.0
2015-Mar-25 01:32N 38°52' W 077°00'0 0.0
2015-Mar-25 00:32N 38°52' W 077°00'0 0.0
2015-Mar-24 23:33N 38°52' W 077°00'0 0.0
2015-Mar-24 22:31N 38°52' W 077°00'0 0.0
2015-Mar-24 21:29N 38°52' W 077°00'0 0.0
2015-Mar-24 20:32N 38°52' W 077°00'0 0.0
2015-Mar-24 19:33N 38°52' W 077°00'4 4.3
2015-Mar-24 18:33N 38°48' W 077°02'6 6.2
2015-Mar-24 17:33N 38°42' W 077°04'41 5.1
2015-Mar-24 09:33N 38°09' W 076°34'9 8.6
2015-Mar-24 08:32N 38°03' W 076°25'7 5.2
2015-Mar-24 07:13N 38°06' W 076°17'50 8.4
2015-Mar-24 01:16N 38°56' W 076°24'8 7.6
2015-Mar-24 00:11N 39°04' W 076°24'5 7.7
2015-Mar-23 23:31N 39°09' W 076°25'7 7.6
2015-Mar-23 22:34N 39°14' W 076°33'2 1.8
2015-Mar-23 21:31N 39°15' W 076°34'0 0.0
2015-Mar-23 20:19N 39°15' W 076°34'0 0.0
2015-Mar-23 19:32N 39°15' W 076°34'0 0.0
2015-Mar-23 18:32N 39°15' W 076°34'0 0.0
2015-Mar-23 17:06N 39°15' W 076°34'0 0.0
2015-Mar-23 15:26N 39°15' W 076°34'0 0.0
2015-Mar-23 14:32N 39°15' W 076°34'0 0.0
2015-Mar-23 13:33N 39°15' W 076°34'0 0.0
2015-Mar-23 12:33N 39°15' W 076°34'0 0.0
2015-Mar-23 11:31N 39°15' W 076°34'0 0.0
2015-Mar-23 10:32N 39°15' W 076°34'1 1.0
2015-Mar-23 09:30N 39°16' W 076°33'0 0.0
2015-Mar-23 08:31N 39°16' W 076°33'0 0.0
2015-Mar-23 07:32N 39°16' W 076°33'0 0.0
2015-Mar-23 06:32N 39°16' W 076°33'0 0.0
2015-Mar-23 05:33N 39°16' W 076°33'0 0.0
2015-Mar-23 04:28N 39°16' W 076°33'0 0.0
2015-Mar-23 03:28N 39°16' W 076°33'0 0.0
2015-Mar-23 02:32N 39°16' W 076°33'0 0.0
2015-Mar-23 01:21N 39°16' W 076°33'0 0.0
2015-Mar-23 00:33N 39°16' W 076°33'0 0.0
2015-Mar-22 23:31N 39°16' W 076°33'0 0.0
2015-Mar-22 22:32N 39°16' W 076°33'0 0.0
2015-Mar-22 21:32N 39°16' W 076°33'0 0.0
2015-Mar-22 20:33N 39°16' W 076°33'0 0.0
2015-Mar-22 19:33N 39°16' W 076°33'0 0.0
2015-Mar-22 18:31N 39°16' W 076°33'0 0.0
2015-Mar-22 17:31N 39°16' W 076°33'0 0.0
2015-Mar-22 16:32N 39°16' W 076°33'0 0.0
2015-Mar-22 15:33N 39°16' W 076°33'0 0.0
2015-Mar-22 14:33N 39°16' W 076°33'0 0.0
2015-Mar-22 13:31N 39°16' W 076°33'0 0.0
2015-Mar-22 12:29N 39°16' W 076°33'0 0.0
2015-Mar-22 11:29N 39°16' W 076°33'0 0.0
2015-Mar-22 10:30N 39°16' W 076°33'0 0.0
2015-Mar-22 09:30N 39°16' W 076°33'0 0.0
2015-Mar-22 08:33N 39°16' W 076°33'0 0.0
2015-Mar-22 07:31N 39°16' W 076°33'0 0.0
2015-Mar-22 06:32N 39°16' W 076°33'0 0.0
2015-Mar-22 05:32N 39°16' W 076°33'0 0.0
2015-Mar-22 04:33N 39°16' W 076°33'0 0.0
2015-Mar-22 03:31N 39°16' W 076°33'0 0.0
2015-Mar-22 02:32N 39°16' W 076°33'0 0.0
2015-Mar-22 01:17N 39°16' W 076°33'0 0.0
2015-Mar-22 00:30N 39°16' W 076°33'0 0.0
2015-Mar-21 23:30N 39°16' W 076°33'0 0.0
2015-Mar-21 22:13N 39°16' W 076°33'0 0.0
2015-Mar-21 21:05N 39°16' W 076°33'0 0.0
2015-Mar-21 20:32N 39°16' W 076°33'0 0.0
2015-Mar-21 19:24N 39°16' W 076°33'0 0.0
2015-Mar-21 18:31N 39°16' W 076°33'0 0.0
2015-Mar-21 17:31N 39°16' W 076°33'0 0.0
2015-Mar-21 16:17N 39°16' W 076°33'0 0.0
2015-Mar-21 15:24N 39°16' W 076°33'0 0.0
2015-Mar-21 14:33N 39°16' W 076°33'1 0.3
2015-Mar-21 11:11N 39°15' W 076°34'1 1.8
2015-Mar-21 10:32N 39°16' W 076°33'0 0.0
2015-Mar-21 09:33N 39°16' W 076°33'0 0.0
2015-Mar-21 08:33N 39°16' W 076°33'0 0.0
2015-Mar-21 07:23N 39°16' W 076°33'0 0.0
2015-Mar-21 06:29N 39°16' W 076°33'0 0.0
2015-Mar-21 05:18N 39°16' W 076°33'0 0.0
2015-Mar-21 04:33N 39°16' W 076°33'0 0.0
2015-Mar-21 03:31N 39°16' W 076°33'0 0.0
2015-Mar-21 02:26N 39°16' W 076°33'0 0.0
2015-Mar-21 01:33N 39°16' W 076°33'0 0.0
2015-Mar-21 00:33N 39°16' W 076°33'0 0.0
2015-Mar-20 21:20N 39°16' W 076°33'0 0.0
2015-Mar-20 20:12N 39°16' W 076°33'6 8.2
2015-Mar-20 19:27N 39°11' W 076°28'9 8.8
2015-Mar-20 18:26N 39°15' W 076°17'910.4
2015-Mar-20 17:33N 39°22' W 076°09'1110.6
2015-Mar-20 16:33N 39°28' W 075°58'10 9.7
2015-Mar-20 15:33N 39°32' W 075°47'10 9.5
2015-Mar-20 14:33N 39°34' W 075°34'6 5.8
2015-Mar-20 13:33N 39°39' W 075°33'9 8.9
2015-Mar-20 12:33N 39°47' W 075°27'1110.5
2015-Mar-20 11:33N 39°51' W 075°15'9 9.2
2015-Mar-20 10:33N 39°58' W 075°07'1110.7
2015-Mar-20 09:33N 40°04' W 074°55'2 2.2
2015-Mar-20 08:29N 40°05' W 074°52'0 0.1
2015-Mar-20 07:33N 40°05' W 074°52'0 0.0
2015-Mar-19 18:24N 40°05' W 074°53'3 3.9
2015-Mar-19 17:33N 40°04' W 074°57'7 6.7
2015-Mar-19 16:33N 39°60' W 075°04'6 6.3
2015-Mar-19 15:34N 39°54' W 075°08'1 0.6
2015-Mar-19 14:32N 39°54' W 075°08'0 0.0
2015-Mar-19 13:33N 39°54' W 075°08'0 0.0
2015-Mar-19 12:33N 39°54' W 075°08'0 0.0
2015-Mar-19 11:31N 39°54' W 075°08'0 0.0
2015-Mar-19 10:32N 39°54' W 075°08'0 0.0
2015-Mar-19 09:32N 39°54' W 075°08'0 0.0
2015-Mar-19 08:33N 39°54' W 075°08'0 0.0
2015-Mar-19 07:31N 39°54' W 075°08'0 0.0
2015-Mar-19 06:31N 39°54' W 075°08'0 0.0
2015-Mar-19 05:32N 39°54' W 075°08'0 0.0
2015-Mar-19 04:33N 39°54' W 075°08'0 0.0
2015-Mar-19 03:33N 39°54' W 075°08'0 0.0
2015-Mar-19 02:31N 39°54' W 075°08'0 0.0
2015-Mar-19 01:32N 39°54' W 075°08'0 0.0
2015-Mar-19 00:32N 39°54' W 075°08'0 0.0
2015-Mar-18 23:33N 39°54' W 075°08'0 0.0
2015-Mar-18 22:31N 39°54' W 075°08'0 0.0
2015-Mar-18 21:32N 39°54' W 075°08'0 0.0
2015-Mar-18 20:32N 39°54' W 075°08'0 0.0
2015-Mar-18 19:33N 39°54' W 075°08'0 0.0
2015-Mar-18 18:31N 39°54' W 075°08'2 2.4
2015-Mar-18 17:33N 39°53' W 075°11'8 8.1
2015-Mar-18 16:33N 39°50' W 075°21'9 9.0
2015-Mar-18 15:33N 39°44' W 075°30'  
Track history (hours):
 
Tides and Currents Weather Stations Pressure Air Temp Water Temp Dewpoint Dewpoint Depression Visibility Wind Speed Wind Dir Waves Ship Positions

Roanoke

Owner: Vane Line Bunkering, Baltimore, MD. More information available from US FCC via Universal Licensing System and Coast Guard Vessel Documentation Center.

Last reported at 2015-Mar-28 15:32 UTC. Time now 2015-Mar-28 16:02 UTC.
Position N 39°15' W 076°33'.

Length 32 m; draft 13 m.

Type: Towing. MMSI: 367314510.

Date/timePositionNaut miles runAvg speedWind from/ knotsBaromVisibWave heightAir tempDewpointWater temp
2015-Mar-28 15:32N 39°15' W 076°33'0 0.0
2015-Mar-28 14:33N 39°15' W 076°33'0 0.0
2015-Mar-28 13:34N 39°15' W 076°33'0 0.0
2015-Mar-28 12:32N 39°15' W 076°33'0 0.0
2015-Mar-28 11:29N 39°15' W 076°33'0 0.0
2015-Mar-28 10:33N 39°15' W 076°33'0 0.0
2015-Mar-28 09:31N 39°15' W 076°33'0 0.0
2015-Mar-28 08:31N 39°15' W 076°33'0 0.0
2015-Mar-28 07:32N 39°15' W 076°33'0 0.0
2015-Mar-28 06:32N 39°15' W 076°33'0 0.0
2015-Mar-28 05:33N 39°15' W 076°33'0 0.0
2015-Mar-28 04:28N 39°15' W 076°33'0 0.0
2015-Mar-28 03:28N 39°15' W 076°33'0 0.0
2015-Mar-28 02:29N 39°15' W 076°33'0 0.0
2015-Mar-28 01:30N 39°15' W 076°33'0 0.0
2015-Mar-28 00:33N 39°15' W 076°33'0 0.0
2015-Mar-27 23:31N 39°15' W 076°33'0 0.0
2015-Mar-27 22:32N 39°15' W 076°33'0 0.4
2015-Mar-27 21:33N 39°15' W 076°33'2 1.6
2015-Mar-27 20:33N 39°14' W 076°34'0 0.0
2015-Mar-27 19:19N 39°14' W 076°34'1 1.4
2015-Mar-27 18:33N 39°15' W 076°34'0 0.1
2015-Mar-27 17:33N 39°15' W 076°34'0 0.2
2015-Mar-27 16:31N 39°15' W 076°34'0 0.0
2015-Mar-27 15:32N 39°15' W 076°34'1 1.0
2015-Mar-27 14:29N 39°15' W 076°33'0 0.0
2015-Mar-27 13:33N 39°15' W 076°33'0 0.0
2015-Mar-27 12:33N 39°15' W 076°33'0 0.0
2015-Mar-27 11:28N 39°15' W 076°33'0 0.0
2015-Mar-27 10:32N 39°15' W 076°33'0 0.0
2015-Mar-27 09:33N 39°15' W 076°33'0 0.0
2015-Mar-27 08:33N 39°15' W 076°33'0 0.0
2015-Mar-27 07:33N 39°15' W 076°33'0 0.0
2015-Mar-27 06:31N 39°15' W 076°33'0 0.0
2015-Mar-27 05:32N 39°15' W 076°33'0 0.0
2015-Mar-27 04:29N 39°15' W 076°33'0 0.0
2015-Mar-27 03:30N 39°15' W 076°33'5 4.6
2015-Mar-27 02:31N 39°12' W 076°30'72 9.0
2015-Mar-26 18:33N 38°01' W 076°18'54 6.7
2015-Mar-26 10:31N 38°37' W 077°10'8 8.5
2015-Mar-26 09:32N 38°43' W 077°02'9 9.4
2015-Mar-26 08:33N 38°52' W 077°01'0 0.3
2015-Mar-26 07:33N 38°52' W 077°00'0 0.0
2015-Mar-26 06:33N 38°52' W 077°00'0 0.0
2015-Mar-26 05:31N 38°52' W 077°00'0 0.0
2015-Mar-26 04:33N 38°52' W 077°00'0 0.0
2015-Mar-26 03:32N 38°52' W 077°00'0 0.0
2015-Mar-26 02:33N 38°52' W 077°00'0 0.0
2015-Mar-26 01:31N 38°52' W 077°00'0 0.0
2015-Mar-26 00:31N 38°52' W 077°00'0 0.0
2015-Mar-25 23:32N 38°52' W 077°00'0 0.0
2015-Mar-25 22:33N 38°52' W 077°00'0 0.0
2015-Mar-25 21:33N 38°52' W 077°00'0 0.0
2015-Mar-25 20:31N 38°52' W 077°00'0 0.0
2015-Mar-25 19:32N 38°52' W 077°00'0 0.0
2015-Mar-25 18:32N 38°52' W 077°00'0 0.0
2015-Mar-25 17:33N 38°52' W 077°00'0 0.0
2015-Mar-25 16:31N 38°52' W 077°00'0 0.0
2015-Mar-25 15:32N 38°52' W 077°00'0 0.0
2015-Mar-25 14:32N 38°52' W 077°00'0 0.0
2015-Mar-25 13:33N 38°52' W 077°00'0 0.0
2015-Mar-25 12:33N 38°52' W 077°00'0 0.0
2015-Mar-25 11:31N 38°52' W 077°00'0 0.0
2015-Mar-25 10:32N 38°52' W 077°00'0 0.0
2015-Mar-25 09:32N 38°52' W 077°00'0 0.0
2015-Mar-25 08:33N 38°52' W 077°00'0 0.0
2015-Mar-25 07:31N 38°52' W 077°00'0 0.0
2015-Mar-25 06:32N 38°52' W 077°00'0 0.0
2015-Mar-25 05:32N 38°52' W 077°00'0 0.0
2015-Mar-25 04:33N 38°52' W 077°00'0 0.0
2015-Mar-25 03:33N 38°52' W 077°00'0 0.0
2015-Mar-25 02:31N 38°52' W 077°00'0 0.0
2015-Mar-25 01:32N 38°52' W 077°00'0 0.0
2015-Mar-25 00:32N 38°52' W 077°00'0 0.0
2015-Mar-24 23:33N 38°52' W 077°00'0 0.0
2015-Mar-24 22:31N 38°52' W 077°00'0 0.0
2015-Mar-24 21:29N 38°52' W 077°00'0 0.0
2015-Mar-24 20:32N 38°52' W 077°00'0 0.0
2015-Mar-24 19:33N 38°52' W 077°00'4 4.3
2015-Mar-24 18:33N 38°48' W 077°02'6 6.2
2015-Mar-24 17:33N 38°42' W 077°04'41 5.1
2015-Mar-24 09:33N 38°09' W 076°34'9 8.6
2015-Mar-24 08:32N 38°03' W 076°25'7 5.2
2015-Mar-24 07:13N 38°06' W 076°17'50 8.4
2015-Mar-24 01:16N 38°56' W 076°24'8 7.6
2015-Mar-24 00:11N 39°04' W 076°24'5 7.7
2015-Mar-23 23:31N 39°09' W 076°25'7 7.6
2015-Mar-23 22:34N 39°14' W 076°33'2 1.8
2015-Mar-23 21:31N 39°15' W 076°34'0 0.0
2015-Mar-23 20:19N 39°15' W 076°34'0 0.0
2015-Mar-23 19:32N 39°15' W 076°34'0 0.0
2015-Mar-23 18:32N 39°15' W 076°34'0 0.0
2015-Mar-23 17:06N 39°15' W 076°34'0 0.0
2015-Mar-23 15:26N 39°15' W 076°34'0 0.0
2015-Mar-23 14:32N 39°15' W 076°34'0 0.0
2015-Mar-23 13:33N 39°15' W 076°34'0 0.0
2015-Mar-23 12:33N 39°15' W 076°34'0 0.0
2015-Mar-23 11:31N 39°15' W 076°34'0 0.0
2015-Mar-23 10:32N 39°15' W 076°34'1 1.0
2015-Mar-23 09:30N 39°16' W 076°33'0 0.0
2015-Mar-23 08:31N 39°16' W 076°33'0 0.0
2015-Mar-23 07:32N 39°16' W 076°33'0 0.0
2015-Mar-23 06:32N 39°16' W 076°33'0 0.0
2015-Mar-23 05:33N 39°16' W 076°33'0 0.0
2015-Mar-23 04:28N 39°16' W 076°33'0 0.0
2015-Mar-23 03:28N 39°16' W 076°33'0 0.0
2015-Mar-23 02:32N 39°16' W 076°33'0 0.0
2015-Mar-23 01:21N 39°16' W 076°33'0 0.0
2015-Mar-23 00:33N 39°16' W 076°33'0 0.0
2015-Mar-22 23:31N 39°16' W 076°33'0 0.0
2015-Mar-22 22:32N 39°16' W 076°33'0 0.0
2015-Mar-22 21:32N 39°16' W 076°33'0 0.0
2015-Mar-22 20:33N 39°16' W 076°33'0 0.0
2015-Mar-22 19:33N 39°16' W 076°33'0 0.0
2015-Mar-22 18:31N 39°16' W 076°33'0 0.0
2015-Mar-22 17:31N 39°16' W 076°33'0 0.0
2015-Mar-22 16:32N 39°16' W 076°33'0 0.0
2015-Mar-22 15:33N 39°16' W 076°33'0 0.0
2015-Mar-22 14:33N 39°16' W 076°33'0 0.0
2015-Mar-22 13:31N 39°16' W 076°33'0 0.0
2015-Mar-22 12:29N 39°16' W 076°33'0 0.0
2015-Mar-22 11:29N 39°16' W 076°33'0 0.0
2015-Mar-22 10:30N 39°16' W 076°33'0 0.0
2015-Mar-22 09:30N 39°16' W 076°33'0 0.0
2015-Mar-22 08:33N 39°16' W 076°33'0 0.0
2015-Mar-22 07:31N 39°16' W 076°33'0 0.0
2015-Mar-22 06:32N 39°16' W 076°33'0 0.0
2015-Mar-22 05:32N 39°16' W 076°33'0 0.0
2015-Mar-22 04:33N 39°16' W 076°33'0 0.0
2015-Mar-22 03:31N 39°16' W 076°33'0 0.0
2015-Mar-22 02:32N 39°16' W 076°33'0 0.0
2015-Mar-22 01:17N 39°16' W 076°33'0 0.0
2015-Mar-22 00:30N 39°16' W 076°33'0 0.0
2015-Mar-21 23:30N 39°16' W 076°33'0 0.0
2015-Mar-21 22:13N 39°16' W 076°33'0 0.0
2015-Mar-21 21:05N 39°16' W 076°33'0 0.0
2015-Mar-21 20:32N 39°16' W 076°33'0 0.0
2015-Mar-21 19:24N 39°16' W 076°33'0 0.0
2015-Mar-21 18:31N 39°16' W 076°33'0 0.0
2015-Mar-21 17:31N 39°16' W 076°33'0 0.0
2015-Mar-21 16:17N 39°16' W 076°33'0 0.0
2015-Mar-21 15:24N 39°16' W 076°33'0 0.0
2015-Mar-21 14:33N 39°16' W 076°33'1 0.3
2015-Mar-21 11:11N 39°15' W 076°34'1 1.8
2015-Mar-21 10:32N 39°16' W 076°33'0 0.0
2015-Mar-21 09:33N 39°16' W 076°33'0 0.0
2015-Mar-21 08:33N 39°16' W 076°33'0 0.0
2015-Mar-21 07:23N 39°16' W 076°33'0 0.0
2015-Mar-21 06:29N 39°16' W 076°33'0 0.0
2015-Mar-21 05:18N 39°16' W 076°33'0 0.0
2015-Mar-21 04:33N 39°16' W 076°33'0 0.0
2015-Mar-21 03:31N 39°16' W 076°33'0 0.0
2015-Mar-21 02:26N 39°16' W 076°33'0 0.0
2015-Mar-21 01:33N 39°16' W 076°33'0 0.0
2015-Mar-21 00:33N 39°16' W 076°33'0 0.0
2015-Mar-20 21:20N 39°16' W 076°33'0 0.0
2015-Mar-20 20:12N 39°16' W 076°33'6 8.2
2015-Mar-20 19:27N 39°11' W 076°28'9 8.8
2015-Mar-20 18:26N 39°15' W 076°17'910.4
2015-Mar-20 17:33N 39°22' W 076°09'1110.6
2015-Mar-20 16:33N 39°28' W 075°58'10 9.7
2015-Mar-20 15:33N 39°32' W 075°47'10 9.5
2015-Mar-20 14:33N 39°34' W 075°34'6 5.8
2015-Mar-20 13:33N 39°39' W 075°33'9 8.9
2015-Mar-20 12:33N 39°47' W 075°27'1110.5
2015-Mar-20 11:33N 39°51' W 075°15'9 9.2
2015-Mar-20 10:33N 39°58' W 075°07'1110.7
2015-Mar-20 09:33N 40°04' W 074°55'2 2.2
2015-Mar-20 08:29N 40°05' W 074°52'0 0.1
2015-Mar-20 07:33N 40°05' W 074°52'0 0.0
2015-Mar-19 18:24N 40°05' W 074°53'3 3.9
2015-Mar-19 17:33N 40°04' W 074°57'7 6.7
2015-Mar-19 16:33N 39°60' W 075°04'6 6.3
2015-Mar-19 15:34N 39°54' W 075°08'1 0.6
2015-Mar-19 14:32N 39°54' W 075°08'0 0.0
2015-Mar-19 13:33N 39°54' W 075°08'0 0.0
2015-Mar-19 12:33N 39°54' W 075°08'0 0.0
2015-Mar-19 11:31N 39°54' W 075°08'0 0.0
2015-Mar-19 10:32N 39°54' W 075°08'0 0.0
2015-Mar-19 09:32N 39°54' W 075°08'0 0.0
2015-Mar-19 08:33N 39°54' W 075°08'0 0.0
2015-Mar-19 07:31N 39°54' W 075°08'0 0.0
2015-Mar-19 06:31N 39°54' W 075°08'0 0.0
2015-Mar-19 05:32N 39°54' W 075°08'0 0.0
2015-Mar-19 04:33N 39°54' W 075°08'0 0.0
2015-Mar-19 03:33N 39°54' W 075°08'0 0.0
2015-Mar-19 02:31N 39°54' W 075°08'0 0.0
2015-Mar-19 01:32N 39°54' W 075°08'0 0.0
2015-Mar-19 00:32N 39°54' W 075°08'0 0.0
2015-Mar-18 23:33N 39°54' W 075°08'0 0.0
2015-Mar-18 22:31N 39°54' W 075°08'0 0.0
2015-Mar-18 21:32N 39°54' W 075°08'0 0.0
2015-Mar-18 20:32N 39°54' W 075°08'0 0.0
2015-Mar-18 19:33N 39°54' W 075°08'0 0.0
2015-Mar-18 18:31N 39°54' W 075°08'2 2.4
2015-Mar-18 17:33N 39°53' W 075°11'8 8.1
2015-Mar-18 16:33N 39°50' W 075°21'9 9.0
2015-Mar-18 15:33N 39°44' W 075°30'  

Dump ship's entire track history